Time;durP1;ratioP1;P1;durP2;ratioP2;P2;SDS_P1;SDS_P2;PMS_P1;PMS_P2;Temp;Humidity;BMP_temperature;BMP_pressure;BME280_temperature;BME280_humidity;BME280_pressure;Samples;Min_cycle;Max_cycle;Signal;HPM_P1;HPM_P2
2022/04/13 00:01:46;;;;;;;32.33;16.85;;;6.30;99.90;;;;;;5016009;28;20043;-52
2022/04/13 00:04:13;;;;;;;33.30;16.63;;;6.40;99.90;;;;;;5017382;28;20521;-52
2022/04/13 00:06:39;;;;;;;30.08;16.13;;;6.30;99.90;;;;;;5020645;28;20026;-52
2022/04/13 00:09:06;;;;;;;33.25;16.85;;;6.30;99.90;;;;;;5027816;28;20043;-51
2022/04/13 00:11:32;;;;;;;29.88;16.75;;;6.00;99.90;;;;;;5026612;28;20017;-52
2022/04/13 00:13:58;;;;;;;33.28;16.17;;;6.00;99.90;;;;;;5027110;28;20029;-52
2022/04/13 00:16:23;;;;;;;29.83;16.13;;;5.90;99.90;;;;;;5027197;28;20024;-53
2022/04/13 00:18:49;;;;;;;30.08;16.25;;;6.00;99.90;;;;;;5026729;28;20059;-52
2022/04/13 00:21:15;;;;;;;33.47;16.42;;;5.80;99.90;;;;;;5027108;28;20075;-53
2022/04/13 00:23:41;;;;;;;31.83;16.90;;;5.80;99.90;;;;;;5028644;28;20025;-52
2022/04/13 00:26:06;;;;;;;30.50;17.13;;;5.80;99.90;;;;;;5028754;28;20052;-51
2022/04/13 00:28:32;;;;;;;26.23;16.23;;;5.90;99.90;;;;;;5028743;28;20396;-53
2022/04/13 00:30:58;;;;;;;28.05;15.38;;;5.90;99.90;;;;;;5028549;28;20409;-51
2022/04/13 00:33:23;;;;;;;33.25;15.70;;;5.80;99.90;;;;;;5028825;28;20029;-53
2022/04/13 00:35:49;;;;;;;34.17;15.43;;;5.80;99.90;;;;;;5028617;28;20032;-52
2022/04/13 00:38:15;;;;;;;31.42;16.48;;;5.70;99.90;;;;;;5028476;28;20033;-53
2022/04/13 00:40:40;;;;;;;38.85;16.63;;;5.70;99.90;;;;;;5028581;28;20030;-52
2022/04/13 00:43:07;;;;;;;31.17;16.20;;;5.80;99.90;;;;;;5028738;28;20539;-52
2022/04/13 00:45:34;;;;;;;26.45;15.02;;;5.80;99.90;;;;;;5027006;28;20053;-52
2022/04/13 00:48:03;;;;;;;33.10;16.70;;;5.80;99.90;;;;;;5028607;28;20029;-52
2022/04/13 00:50:29;;;;;;;28.20;15.55;;;5.90;99.90;;;;;;5028481;28;20053;-51
2022/04/13 00:52:58;;;;;;;30.88;16.40;;;5.80;99.90;;;;;;5028191;28;20021;-52
2022/04/13 00:55:27;;;;;;;32.08;16.88;;;5.70;99.90;;;;;;5028603;28;20084;-52
2022/04/13 00:57:54;;;;;;;31.85;17.17;;;5.70;99.90;;;;;;5028486;28;20108;-53
2022/04/13 01:00:20;;;;;;;31.40;17.38;;;5.60;99.90;;;;;;5028430;28;20109;-53
2022/04/13 01:02:46;;;;;;;31.70;16.77;;;5.50;99.90;;;;;;5028190;28;20108;-51
2022/04/13 01:05:12;;;;;;;27.35;16.08;;;5.50;99.90;;;;;;5028311;28;20036;-52
2022/04/13 01:07:39;;;;;;;36.90;17.97;;;5.60;99.90;;;;;;5028132;28;20072;-52
2022/04/13 01:10:07;;;;;;;30.52;16.92;;;5.60;99.90;;;;;;5028447;28;20046;-52
2022/04/13 01:12:36;;;;;;;31.92;16.77;;;5.60;99.90;;;;;;5028314;28;20061;-52
2022/04/13 01:15:03;;;;;;;31.52;17.92;;;5.60;99.90;;;;;;5028096;28;20384;-52
2022/04/13 01:17:29;;;;;;;31.63;17.00;;;5.60;99.90;;;;;;5028176;28;20018;-52
2022/04/13 01:19:56;;;;;;;32.35;16.92;;;5.50;99.90;;;;;;5026810;28;20021;-52
2022/04/13 01:22:23;;;;;;;33.00;16.63;;;5.30;99.90;;;;;;5028287;28;20040;-52
2022/04/13 01:24:49;;;;;;;;;;;5.30;99.90;;;;;;5028651;28;20086;-51
2022/04/13 01:27:15;;;;;;;32.10;17.33;;;5.20;99.90;;;;;;5028232;28;19905;-51
2022/04/13 01:29:45;;;;;;;31.95;18.27;;;5.20;99.90;;;;;;5026952;28;20045;-52
2022/04/13 01:32:12;;;;;;;37.20;18.75;;;5.20;99.90;;;;;;5030166;28;20060;-51
2022/04/13 01:34:45;;;;;;;36.38;17.38;;;5.20;99.90;;;;;;5031954;28;20390;-51
2022/04/13 01:37:10;;;;;;;32.00;17.75;;;5.20;99.90;;;;;;5031944;28;20083;-52
2022/04/13 01:39:36;;;;;;;39.55;19.05;;;5.10;99.90;;;;;;5031829;28;20033;-50
2022/04/13 01:42:02;;;;;;;34.33;19.27;;;4.90;99.90;;;;;;5032059;28;20026;-50
2022/04/13 01:44:28;;;;;;;33.92;18.40;;;5.00;99.90;;;;;;5031520;28;20033;-51
2022/04/13 01:46:53;;;;;;;36.10;18.52;;;4.90;99.90;;;;;;5031628;28;20444;-49
2022/04/13 01:49:19;;;;;;;36.80;18.90;;;4.90;99.90;;;;;;5031193;28;20033;-50
2022/04/13 01:51:45;;;;;;;32.13;18.23;;;4.90;99.90;;;;;;5031574;28;20052;-51
2022/04/13 01:54:10;;;;;;;35.78;18.95;;;4.90;99.90;;;;;;5031353;28;20021;-51
2022/04/13 01:56:36;;;;;;;33.22;17.75;;;4.80;99.90;;;;;;5030198;28;20060;-51
2022/04/13 01:59:02;;;;;;;31.75;16.45;;;4.80;99.90;;;;;;5031260;28;20029;-51
2022/04/13 02:01:28;;;;;;;31.20;17.83;;;4.70;99.90;;;;;;5031376;28;20018;-51
2022/04/13 02:03:53;;;;;;;38.95;17.90;;;4.80;99.90;;;;;;5031650;28;20508;-50
2022/04/13 02:06:19;;;;;;;33.08;18.23;;;4.70;99.90;;;;;;5031708;28;20030;-50
2022/04/13 02:08:45;;;;;;;32.22;18.05;;;4.70;99.90;;;;;;5031718;28;20071;-51
2022/04/13 02:11:10;;;;;;;37.53;18.95;;;4.70;99.90;;;;;;5031661;28;20029;-51
2022/04/13 02:13:38;;;;;;;28.17;16.70;;;4.60;99.90;;;;;;5031468;28;20033;-51
2022/04/13 02:16:03;;;;;;;;;;;4.50;99.90;;;;;;5032095;28;20593;-50
2022/04/13 02:18:29;;;;;;;34.63;17.83;;;4.50;99.90;;;;;;5030210;28;20349;-51
2022/04/13 02:20:55;;;;;;;33.35;17.65;;;4.60;99.90;;;;;;5031666;28;20496;-51
2022/04/13 02:23:21;;;;;;;36.42;18.48;;;4.60;99.90;;;;;;5031178;28;20105;-51
2022/04/13 02:25:47;;;;;;;37.95;19.75;;;4.60;99.90;;;;;;5031390;28;20037;-51
2022/04/13 02:28:13;;;;;;;32.03;18.08;;;4.60;99.90;;;;;;5031126;28;20155;-51
2022/04/13 02:30:39;;;;;;;35.47;18.27;;;4.60;99.90;;;;;;5031452;28;20427;-51
2022/04/13 02:33:05;;;;;;;36.63;19.70;;;4.60;99.90;;;;;;5031542;28;20029;-51
2022/04/13 02:35:30;;;;;;;35.85;18.92;;;4.50;99.90;;;;;;5031291;28;20047;-50
2022/04/13 02:37:56;;;;;;;36.17;20.38;;;4.40;99.90;;;;;;5031082;28;20079;-53
2022/04/13 02:40:22;;;;;;;39.05;21.75;;;4.30;99.90;;;;;;5031290;28;20381;-51
2022/04/13 02:42:48;;;;;;;37.88;20.92;;;4.20;99.90;;;;;;5030868;28;20479;-51
2022/04/13 02:45:14;;;;;;;40.53;21.30;;;4.20;99.90;;;;;;5030805;28;20055;-50
2022/04/13 02:47:39;;;;;;;35.40;20.02;;;4.20;99.90;;;;;;5031131;28;20112;-51
2022/04/13 02:50:06;;;;;;;40.17;20.13;;;4.30;99.90;;;;;;5030891;28;20060;-51
2022/04/13 02:52:32;;;;;;;35.97;19.45;;;4.10;99.90;;;;;;5031363;28;20025;-51
2022/04/13 02:54:58;;;;;;;36.35;20.10;;;4.10;99.90;;;;;;5030954;28;20033;-50
2022/04/13 02:57:24;;;;;;;35.28;20.85;;;4.00;99.90;;;;;;5030755;28;20063;-51
2022/04/13 02:59:50;;;;;;;37.97;21.10;;;4.10;99.90;;;;;;5030436;28;20030;-50
2022/04/13 03:02:17;;;;;;;39.40;20.02;;;4.10;99.90;;;;;;5030634;28;20052;-51
2022/04/13 03:04:45;;;;;;;37.03;21.30;;;4.00;99.90;;;;;;5030697;28;20029;-51
2022/04/13 03:07:11;;;;;;;37.22;20.88;;;3.90;99.90;;;;;;5030336;28;20260;-51
2022/04/13 03:09:38;;;;;;;38.72;20.15;;;3.90;99.90;;;;;;5030474;28;20045;-52
2022/04/13 03:12:05;;;;;;;38.33;19.30;;;3.90;99.90;;;;;;5030424;28;20083;-51
2022/04/13 03:14:31;;;;;;;41.38;21.77;;;3.80;99.90;;;;;;5030086;28;20041;-51
2022/04/13 03:16:56;;;;;;;38.25;22.13;;;3.90;99.90;;;;;;5030469;28;20079;-51
2022/04/13 03:19:22;;;;;;;40.40;21.73;;;3.80;99.90;;;;;;5030229;28;20156;-50
2022/04/13 03:21:51;;;;;;;42.28;21.75;;;3.80;99.90;;;;;;5030300;28;20029;-52
2022/04/13 03:24:17;;;;;;;42.30;21.25;;;3.80;99.90;;;;;;5030024;28;20040;-50
2022/04/13 03:26:43;;;;;;;37.70;20.77;;;3.70;99.90;;;;;;5030189;28;20599;-51
2022/04/13 03:29:09;;;;;;;45.67;23.88;;;3.80;99.90;;;;;;5029655;28;20156;-50
2022/04/13 03:31:35;;;;;;;45.25;22.70;;;3.80;99.90;;;;;;5030034;28;20389;-50
2022/04/13 03:34:01;;;;;;;45.42;22.88;;;3.70;99.90;;;;;;5030259;28;20381;-51
2022/04/13 03:36:27;;;;;;;43.15;23.55;;;3.70;99.90;;;;;;5029980;28;20470;-52
2022/04/13 03:38:53;;;;;;;49.90;25.25;;;3.60;99.90;;;;;;5029855;28;20509;-53
2022/04/13 03:41:19;;;;;;;48.03;25.42;;;3.60;99.90;;;;;;5029799;28;20156;-52
2022/04/13 03:43:44;;;;;;;52.00;24.77;;;3.60;99.90;;;;;;5029710;28;20029;-52
2022/04/13 03:46:10;;;;;;;60.67;28.73;;;3.50;99.90;;;;;;5029663;28;20026;-52
2022/04/13 03:48:36;;;;;;;66.47;31.40;;;3.50;99.90;;;;;;5029312;28;20037;-52
2022/04/13 03:51:02;;;;;;;71.68;32.40;;;3.50;99.90;;;;;;5029507;28;20057;-52
2022/04/13 03:53:27;;;;;;;64.40;30.63;;;3.40;99.90;;;;;;5029110;28;20039;-52
2022/04/13 03:55:53;;;;;;;52.28;25.77;;;3.50;99.90;;;;;;5028677;28;20017;-51
2022/04/13 03:58:19;;;;;;;50.13;26.27;;;3.60;99.90;;;;;;5030366;28;20044;-51
2022/04/13 04:00:44;;;;;;;47.40;25.63;;;3.50;99.90;;;;;;5029649;28;20017;-52
2022/04/13 04:03:10;;;;;;;42.67;23.13;;;3.60;99.90;;;;;;5029425;28;20531;-51
2022/04/13 04:05:37;;;;;;;43.33;22.13;;;3.60;99.90;;;;;;5028185;28;20107;-52
2022/04/13 04:08:02;;;;;;;40.15;22.10;;;3.70;99.90;;;;;;5029311;28;20036;-51
2022/04/13 04:10:28;;;;;;;43.00;23.08;;;3.70;99.90;;;;;;5029192;28;20038;-52
2022/04/13 04:12:55;;;;;;;44.95;24.23;;;3.90;99.90;;;;;;5029211;28;20037;-51
2022/04/13 04:15:21;;;;;;;46.80;24.42;;;3.80;99.90;;;;;;5028965;28;20503;-52
2022/04/13 04:17:47;;;;;;;49.65;23.90;;;3.70;99.90;;;;;;5029548;28;20033;-51
2022/04/13 04:20:13;;;;;;;41.70;23.23;;;3.80;99.90;;;;;;5029210;28;20033;-51
2022/04/13 04:22:38;;;;;;;40.85;22.73;;;3.60;99.90;;;;;;5029124;28;20112;-52
2022/04/13 04:25:08;;;;;;;43.15;23.50;;;3.50;99.90;;;;;;5029099;28;20045;-52
2022/04/13 04:27:34;;;;;;;49.95;24.65;;;3.60;99.90;;;;;;5029118;28;20045;-52
2022/04/13 04:30:00;;;;;;;49.60;25.60;;;3.50;99.90;;;;;;5029138;28;20037;-50
2022/04/13 04:32:26;;;;;;;43.78;24.67;;;3.60;99.90;;;;;;5028859;28;20092;-52
2022/04/13 04:34:52;;;;;;;49.67;27.05;;;3.70;99.90;;;;;;5029049;28;20128;-52
2022/04/13 04:37:18;;;;;;;56.63;28.77;;;3.50;99.90;;;;;;5028930;28;20445;-52
2022/04/13 04:39:44;;;;;;;52.10;28.67;;;3.50;99.90;;;;;;5028664;28;20095;-51
2022/04/13 04:42:10;;;;;;;57.90;30.83;;;3.50;99.90;;;;;;5029218;28;20029;-51
2022/04/13 04:44:36;;;;;;;55.05;30.80;;;3.50;99.90;;;;;;5028896;28;20508;-52
2022/04/13 04:47:02;;;;;;;59.88;31.38;;;3.50;99.90;;;;;;5028815;28;20032;-51
2022/04/13 04:49:28;;;;;;;63.78;35.05;;;3.50;99.90;;;;;;5028548;28;20076;-51
2022/04/13 04:51:54;;;;;;;67.30;37.42;;;3.50;99.90;;;;;;5027297;28;20476;-50
2022/04/13 04:54:20;;;;;;;68.93;38.47;;;3.60;99.90;;;;;;5028764;28;20029;-51
2022/04/13 04:56:45;;;;;;;77.65;39.22;;;3.70;99.90;;;;;;5028599;28;20112;-51
2022/04/13 04:59:11;;;;;;;64.63;37.53;;;3.70;99.90;;;;;;5028852;28;20026;-52
2022/04/13 05:01:36;;;;;;;58.00;33.83;;;3.80;99.90;;;;;;5028570;28;20025;-51
2022/04/13 05:04:02;;;;;;;62.67;34.60;;;4.00;99.90;;;;;;5028623;28;20060;-51
2022/04/13 05:06:29;;;;;;;65.22;35.20;;;4.00;99.90;;;;;;5029987;28;20041;-52
2022/04/13 05:09:01;;;;;;;62.53;33.03;;;4.00;99.90;;;;;;5032514;28;20029;-51
2022/04/13 05:11:27;;;;;;;53.28;29.95;;;4.10;99.90;;;;;;5032510;28;20072;-52
2022/04/13 05:13:52;;;;;;;54.70;28.45;;;4.20;99.90;;;;;;5032593;28;20450;-51
2022/04/13 05:16:20;;;;;;;45.78;26.17;;;4.20;99.90;;;;;;5032710;28;20036;-51
2022/04/13 05:18:46;;;;;;;;;;;4.30;99.90;;;;;;5032900;28;20057;-51
2022/04/13 05:21:12;;;;;;;48.80;26.45;;;4.40;99.90;;;;;;5032633;28;19948;-51
2022/04/13 05:23:38;;;;;;;46.63;25.45;;;4.50;99.90;;;;;;5032513;28;20071;-52
2022/04/13 05:26:04;;;;;;;43.25;23.05;;;4.60;99.90;;;;;;5031060;28;20029;-52
2022/04/13 05:28:31;;;;;;;40.27;21.37;;;4.70;99.90;;;;;;5030840;28;20310;-52
2022/04/13 05:30:57;;;;;;;40.30;21.60;;;4.80;99.90;;;;;;5032359;28;20273;-51
2022/04/13 05:33:23;;;;;;;37.63;19.88;;;4.90;99.90;;;;;;5032351;28;20022;-52
2022/04/13 05:35:49;;;;;;;33.95;19.13;;;5.00;99.90;;;;;;5032301;28;20056;-51
2022/04/13 05:38:15;;;;;;;31.05;17.98;;;5.20;99.90;;;;;;5032269;28;20766;-51
2022/04/13 05:40:41;;;;;;;35.55;18.80;;;5.30;99.90;;;;;;5032601;28;20084;-52
2022/04/13 05:43:08;;;;;;;33.10;18.92;;;5.40;99.90;;;;;;5031991;28;20497;-52
2022/04/13 05:45:33;;;;;;;28.83;17.33;;;5.50;99.90;;;;;;5032085;28;20488;-52
2022/04/13 05:47:59;;;;;;;30.60;17.95;;;5.60;99.90;;;;;;5031896;28;20018;-53
2022/04/13 05:50:25;;;;;;;34.53;18.20;;;5.70;99.90;;;;;;5031607;28;20053;-52
2022/04/13 05:52:51;;;;;;;31.33;18.30;;;5.80;99.90;;;;;;5031503;28;20469;-52
2022/04/13 05:55:17;;;;;;;39.97;20.30;;;5.90;99.90;;;;;;5046000;28;20098;-52
2022/04/13 05:57:43;;;;;;;36.88;19.30;;;5.90;99.90;;;;;;5051969;28;20033;-51
2022/04/13 06:00:11;;;;;;;38.42;19.13;;;6.00;99.90;;;;;;5051642;28;20078;-52
2022/04/13 06:02:38;;;;;;;31.85;18.98;;;6.10;99.90;;;;;;5051654;28;20029;-52
2022/04/13 06:05:05;;;;;;;35.38;17.67;;;6.20;99.90;;;;;;5051579;28;20039;-50
2022/04/13 06:07:31;;;;;;;33.50;18.27;;;6.30;99.90;;;;;;5047582;28;20035;-52
2022/04/13 06:10:01;;;;;;;30.90;18.23;;;6.30;99.90;;;;;;5031622;28;20049;-52
2022/04/13 06:12:27;;;;;;;33.17;18.60;;;6.40;99.90;;;;;;5031348;28;20547;-52
2022/04/13 06:15:03;;;;;;;30.45;17.35;;;6.50;99.90;;;;;;5031678;28;20025;-51
2022/04/13 06:17:29;;;;;;;30.63;17.55;;;6.60;99.90;;;;;;5030976;28;20017;-52
2022/04/13 06:19:55;;;;;;;38.03;19.33;;;6.70;99.90;;;;;;5031278;28;20108;-52
2022/04/13 06:22:21;;;;;;;27.48;15.80;;;6.80;99.90;;;;;;5031664;28;20059;-51
2022/04/13 06:24:51;;;;;;;33.72;17.10;;;6.90;99.90;;;;;;5031255;28;20541;-51
2022/04/13 06:27:17;;;;;;;31.42;16.42;;;6.90;99.90;;;;;;5031157;28;20033;-52
2022/04/13 06:29:42;;;;;;;33.00;17.15;;;7.00;99.90;;;;;;5031327;28;20038;-52
2022/04/13 06:32:08;;;;;;;28.42;17.77;;;7.10;99.90;;;;;;5030965;28;20040;-52
2022/04/13 06:34:34;;;;;;;30.60;17.98;;;7.20;99.90;;;;;;5029909;28;20397;-51
2022/04/13 06:37:00;;;;;;;31.02;16.38;;;7.40;99.90;;;;;;5031020;28;20032;-52
2022/04/13 06:39:25;;;;;;;29.20;17.58;;;7.40;99.90;;;;;;5030884;28;20036;-52
2022/04/13 06:41:51;;;;;;;27.80;17.30;;;7.50;99.90;;;;;;5031207;28;20022;-52
2022/04/13 06:44:17;;;;;;;35.38;18.52;;;7.60;99.90;;;;;;5030747;28;20037;-52
2022/04/13 06:46:42;;;;;;;28.02;17.48;;;7.70;99.90;;;;;;5031024;28;20037;-54
2022/04/13 06:49:08;;;;;;;36.05;19.63;;;7.90;99.90;;;;;;5030358;28;20029;-51
2022/04/13 06:51:34;;;;;;;35.58;19.95;;;8.00;99.90;;;;;;5030970;28;20046;-51
2022/04/13 06:54:00;;;;;;;34.95;18.88;;;8.10;99.90;;;;;;5030677;28;20034;-52
2022/04/13 06:56:25;;;;;;;35.80;19.63;;;8.20;99.90;;;;;;5030680;28;20030;-53
2022/04/13 06:58:51;;;;;;;35.17;19.63;;;8.30;99.90;;;;;;5030705;28;20087;-52
2022/04/13 07:01:17;;;;;;;36.60;21.13;;;8.40;99.90;;;;;;5029300;28;20030;-52
2022/04/13 07:03:42;;;;;;;36.63;19.58;;;8.50;99.90;;;;;;5030631;28;20104;-52
2022/04/13 07:06:08;;;;;;;30.60;16.75;;;8.60;99.90;;;;;;5030974;28;20025;-52
2022/04/13 07:08:34;;;;;;;32.67;17.25;;;8.70;99.90;;;;;;5030249;28;20469;-52
2022/04/13 07:10:59;;;;;;;28.27;16.73;;;9.00;99.90;;;;;;5030490;28;20071;-50
2022/04/13 07:13:25;;;;;;;33.22;18.15;;;9.10;99.90;;;;;;5030486;28;20033;-50
2022/04/13 07:15:52;;;;;;;27.50;17.67;;;9.20;99.90;;;;;;5030551;28;20872;-51
2022/04/13 07:18:18;;;;;;;;;;;9.20;99.90;;;;;;5030694;28;20056;-52
2022/04/13 07:20:44;;;;;;;23.92;13.30;;;9.20;99.90;;;;;;5030236;28;19960;-51
2022/04/13 07:23:10;;;;;;;28.88;15.15;;;9.30;99.90;;;;;;5030279;28;20022;-51
2022/04/13 07:25:36;;;;;;;24.70;13.15;;;9.50;99.90;;;;;;5028719;28;20036;-50
2022/04/13 07:28:02;;;;;;;23.15;12.20;;;9.60;99.90;;;;;;5030386;28;20548;-52
2022/04/13 07:30:28;;;;;;;29.83;13.63;;;9.60;99.60;;;;;;5029344;28;20041;-52
2022/04/13 07:33:01;;;;;;;22.25;12.90;;;9.60;98.60;;;;;;5029875;28;20083;-52
2022/04/13 07:35:28;;;;;;;25.70;12.68;;;9.80;99.90;;;;;;5029801;28;20370;-52
2022/04/13 07:37:53;;;;;;;24.58;12.98;;;9.80;97.80;;;;;;5029977;28;20048;-52
2022/04/13 07:40:19;;;;;;;19.25;12.15;;;9.80;97.80;;;;;;5030112;28;20422;-51
2022/04/13 07:42:45;;;;;;;23.13;13.07;;;9.90;96.70;;;;;;5029670;28;20351;-51
2022/04/13 07:45:11;;;;;;;23.83;12.55;;;10.00;97.50;;;;;;5029712;28;20489;-51
2022/04/13 07:47:37;;;;;;;23.02;11.32;;;10.20;96.10;;;;;;5029832;28;20036;-50
2022/04/13 07:50:04;;;;;;;21.47;12.53;;;10.20;94.30;;;;;;5029234;28;20102;-52
2022/04/13 07:52:34;;;;;;;18.70;10.65;;;10.30;93.80;;;;;;5029557;28;20117;-52
2022/04/13 07:55:00;;;;;;;20.95;11.88;;;10.30;94.00;;;;;;5029544;28;20615;-52
2022/04/13 07:57:26;;;;;;;21.35;12.00;;;10.50;94.70;;;;;;5029428;28;20584;-51
2022/04/13 07:59:53;;;;;;;22.52;11.80;;;10.60;92.70;;;;;;5029416;28;20033;-52
2022/04/13 08:02:20;;;;;;;27.33;13.20;;;10.60;93.30;;;;;;5029036;28;20030;-51
2022/04/13 08:04:46;;;;;;;;;;;10.90;97.00;;;;;;5029673;28;20041;-53
2022/04/13 08:07:12;;;;;;;17.50;9.70;;;10.90;92.30;;;;;;5029546;28;20573;-52
2022/04/13 08:09:39;;;;;;;19.98;11.18;;;11.00;90.30;;;;;;5029372;28;20098;-52
2022/04/13 08:12:05;;;;;;;19.77;10.77;;;11.00;89.20;;;;;;5025993;28;20033;-51
2022/04/13 08:14:31;;;;;;;16.83;9.52;;;11.20;88.70;;;;;;5031374;28;20037;-52
2022/04/13 08:16:57;;;;;;;19.13;10.10;;;11.20;84.90;;;;;;5027723;28;20075;-53
2022/04/13 08:19:23;;;;;;;21.90;11.20;;;11.30;88.40;;;;;;5029059;28;20107;-52
2022/04/13 08:21:49;;;;;;;19.83;9.97;;;11.40;89.00;;;;;;5029081;28;20489;-51
2022/04/13 08:24:18;;;;;;;17.00;8.98;;;11.60;91.10;;;;;;5029051;28;20029;-51
2022/04/13 08:26:44;;;;;;;22.63;10.68;;;11.80;91.30;;;;;;5028675;28;20025;-50
2022/04/13 08:29:10;;;;;;;17.15;9.38;;;12.00;85.60;;;;;;5028964;28;20044;-53
2022/04/13 08:31:37;;;;;;;18.27;10.20;;;12.10;88.60;;;;;;5029168;28;20021;-51
2022/04/13 08:34:03;;;;;;;15.30;9.40;;;12.20;89.10;;;;;;5029119;28;20041;-51
2022/04/13 08:36:28;;;;;;;19.33;12.00;;;12.30;80.30;;;;;;5029242;28;20021;-51
2022/04/13 08:38:54;;;;;;;18.88;11.15;;;12.40;83.30;;;;;;5028975;28;20100;-51
2022/04/13 08:41:38;;;;;;;18.35;10.32;;;12.50;84.50;;;;;;5028754;28;20113;-51
2022/04/13 08:44:11;;;;;;;20.90;11.35;;;12.80;87.60;;;;;;5028684;28;20034;-51
2022/04/13 08:46:40;;;;;;;24.65;11.93;;;13.00;81.70;;;;;;5028900;28;20029;-53
2022/04/13 08:49:09;;;;;;;24.58;13.55;;;13.00;80.60;;;;;;5028634;28;20350;-51
2022/04/13 08:51:35;;;;;;;21.33;12.27;;;13.20;83.20;;;;;;5028629;28;20042;-51
2022/04/13 08:54:28;;;;;;;27.80;12.45;;;13.50;79.70;;;;;;5028548;28;20037;-51
2022/04/13 08:56:55;;;;;;;20.17;11.80;;;13.80;82.80;;;;;;5028925;28;20057;-53
2022/04/13 08:59:38;;;;;;;19.13;10.98;;;14.10;78.70;;;;;;5028353;28;20223;-51
2022/04/13 09:02:43;;;;;;;16.88;10.32;;;14.20;72.00;;;;;;5028490;28;20037;-51
2022/04/13 09:05:12;;;;;;;16.25;9.43;;;14.50;68.10;;;;;;5028485;28;20026;-53
2022/04/13 09:07:39;;;;;;;20.08;10.57;;;14.90;65.90;;;;;;5027084;28;20104;-51
2022/04/13 09:10:10;;;;;;;15.68;9.30;;;15.20;67.30;;;;;;5027422;28;20389;-51
2022/04/13 09:12:36;;;;;;;20.02;9.93;;;15.60;68.20;;;;;;5027737;28;20084;-52
2022/04/13 09:15:04;;;;;;;19.37;10.73;;;15.80;68.50;;;;;;5026703;28;20037;-53
2022/04/13 09:17:29;;;;;;;;;;;16.20;59.70;;;;;;5028095;28;20358;-51
2022/04/13 09:19:56;;;;;;;20.50;10.30;;;16.40;58.90;;;;;;5028314;28;19912;-52
2022/04/13 09:22:23;;;;;;;21.00;10.38;;;16.30;60.80;;;;;;5027060;28;20815;-52
2022/04/13 09:24:50;;;;;;;20.40;11.33;;;16.00;60.30;;;;;;5028332;28;20073;-52
2022/04/13 09:27:17;;;;;;;21.30;10.38;;;16.60;60.20;;;;;;5028155;28;20030;-52
2022/04/13 09:29:43;;;;;;;18.10;9.57;;;16.20;61.10;;;;;;5028216;28;20116;-51
2022/04/13 09:32:09;;;;;;;16.13;8.80;;;17.00;58.40;;;;;;5028458;28;20412;-51
2022/04/13 09:34:35;;;;;;;17.10;10.70;;;17.20;58.20;;;;;;5028536;28;20125;-50
2022/04/13 09:37:01;;;;;;;17.90;10.05;;;17.70;59.70;;;;;;5028232;28;20355;-51
2022/04/13 09:39:27;;;;;;;18.33;9.73;;;17.70;56.80;;;;;;5028367;28;20056;-52
2022/04/13 09:41:53;;;;;;;19.42;10.80;;;17.10;58.10;;;;;;5025542;28;20424;-51
2022/04/13 09:44:19;;;;;;;22.60;11.73;;;17.00;57.80;;;;;;5028081;28;20029;-52
2022/04/13 09:46:45;;;;;;;19.05;10.88;;;16.10;57.80;;;;;;5028254;28;20037;-51
2022/04/13 09:49:12;;;;;;;20.35;10.70;;;16.60;59.30;;;;;;5028160;28;20087;-51
2022/04/13 09:51:39;;;;;;;22.70;10.70;;;16.50;58.00;;;;;;5028473;28;20052;-52
2022/04/13 09:54:07;;;;;;;23.02;11.27;;;16.30;59.80;;;;;;5031722;28;20477;-51
2022/04/13 09:56:33;;;;;;;19.33;11.55;;;17.50;56.90;;;;;;5032023;28;20042;-53
2022/04/13 09:58:59;;;;;;;21.83;11.50;;;17.20;55.90;;;;;;5031757;28;20032;-51
2022/04/13 10:01:24;;;;;;;21.30;11.07;;;17.00;57.30;;;;;;5031856;28;20029;-52
2022/04/13 10:03:57;;;;;;;20.80;11.93;;;17.40;56.40;;;;;;5031795;28;20021;-51
2022/04/13 10:06:33;;;;;;;24.08;10.82;;;17.60;57.70;;;;;;5031672;28;20037;-51
2022/04/13 10:09:08;;;;;;;24.92;11.70;;;17.90;56.10;;;;;;5031542;28;20029;-53
2022/04/13 10:11:35;;;;;;;22.35;11.73;;;18.00;54.50;;;;;;5037728;28;20029;-51
2022/04/13 10:14:09;;;;;;;20.33;10.88;;;18.10;56.70;;;;;;5051496;28;20601;-51
2022/04/13 10:16:35;;;;;;;25.42;11.02;;;17.80;54.20;;;;;;5051365;28;20036;-51
2022/04/13 10:19:03;;;;;;;22.65;11.88;;;17.40;53.60;;;;;;5051587;28;20033;-52
2022/04/13 10:21:52;;;;;;;22.75;12.65;;;17.60;57.00;;;;;;5051357;28;20021;-51
2022/04/13 10:24:29;;;;;;;21.08;11.45;;;17.90;57.00;;;;;;5051299;28;20430;-52
2022/04/13 10:27:19;;;;;;;27.95;10.90;;;19.20;58.90;;;;;;5051133;28;20033;-51
2022/04/13 10:29:48;;;;;;;22.10;11.98;;;20.20;54.40;;;;;;5051203;28;20029;-53
2022/04/13 10:32:16;;;;;;;20.38;11.80;;;19.70;51.70;;;;;;5051009;28;20388;-55
2022/04/13 10:34:44;;;;;;;22.17;12.27;;;19.90;51.30;;;;;;5051237;28;20033;-51
2022/04/13 10:37:12;;;;;;;20.17;10.88;;;20.20;49.20;;;;;;5051131;28;20036;-53
2022/04/13 10:39:38;;;;;;;19.75;11.40;;;20.30;51.40;;;;;;5051182;28;20025;-53
2022/04/13 10:42:06;;;;;;;17.90;10.47;;;20.10;56.50;;;;;;5051102;28;20496;-53
2022/04/13 10:44:41;;;;;;;21.38;10.63;;;20.20;48.70;;;;;;5050743;28;20623;-53
2022/04/13 10:47:10;;;;;;;17.50;10.40;;;20.30;48.20;;;;;;5050723;28;20032;-52
2022/04/13 10:49:56;;;;;;;19.58;10.68;;;20.40;47.70;;;;;;5050675;28;20048;-53
2022/04/13 10:52:47;;;;;;;19.13;10.65;;;19.70;48.50;;;;;;5050704;28;20029;-51
2022/04/13 10:55:14;;;;;;;18.40;10.30;;;20.20;50.40;;;;;;5050759;28;20036;-52
2022/04/13 10:57:50;;;;;;;23.02;11.50;;;20.80;53.20;;;;;;5050570;28;20021;-52
2022/04/13 11:00:18;;;;;;;20.30;11.00;;;20.60;52.80;;;;;;5050592;28;20029;-51
2022/04/13 11:02:52;;;;;;;22.95;12.23;;;21.20;48.80;;;;;;5050494;28;20306;-51
2022/04/13 11:05:18;;;;;;;20.00;12.10;;;20.90;49.50;;;;;;5047902;28;20025;-50
2022/04/13 11:07:44;;;;;;;19.13;11.80;;;21.20;47.80;;;;;;5036892;28;20037;-49
2022/04/13 11:10:20;;;;;;;21.53;11.90;;;21.00;46.10;;;;;;5030663;28;20033;-51
2022/04/13 11:12:47;;;;;;;18.42;9.40;;;21.30;47.50;;;;;;5028775;28;20126;-51
2022/04/13 11:15:12;;;;;;;25.83;10.52;;;21.60;47.90;;;;;;5030401;28;20059;-51
2022/04/13 11:17:42;;;;;;;18.25;10.68;;;21.40;44.70;;;;;;5030554;28;20030;-51
2022/04/13 11:20:23;;;;;;;15.00;9.25;;;20.80;45.40;;;;;;5030079;28;20029;-51
2022/04/13 11:23:09;;;;;;;21.55;9.98;;;20.20;45.90;;;;;;5030318;28;20469;-52
2022/04/13 11:25:54;;;;;;;18.98;10.45;;;20.30;47.70;;;;;;5030049;28;20354;-52
2022/04/13 11:28:25;;;;;;;19.83;9.75;;;20.10;44.90;;;;;;5032216;28;20045;-50
2022/04/13 11:31:12;;;;;;;16.15;9.25;;;20.20;46.60;;;;;;5009494;28;20049;-51
2022/04/13 11:33:51;;;;;;;19.08;9.63;;;20.40;48.20;;;;;;5010351;28;20022;-51
2022/04/13 11:36:20;;;;;;;17.20;9.52;;;20.50;48.00;;;;;;5010088;28;20068;-50
2022/04/13 11:38:50;;;;;;;19.00;9.15;;;20.50;45.20;;;;;;5010015;28;20462;-51
2022/04/13 11:41:16;;;;;;;15.57;8.95;;;20.60;46.00;;;;;;5010337;28;20025;-51
2022/04/13 11:43:42;;;;;;;17.77;9.80;;;20.90;46.10;;;;;;5030250;28;20043;-52
2022/04/13 11:46:28;;;;;;;14.95;9.30;;;21.00;44.40;;;;;;5049660;28;20283;-52
2022/04/13 11:48:55;;;;;;;21.38;10.10;;;21.40;50.20;;;;;;5046327;28;20123;-51
2022/04/13 11:51:27;;;;;;;18.95;10.48;;;21.10;45.10;;;;;;5049018;28;20045;-51
2022/04/13 11:54:05;;;;;;;18.38;10.27;;;20.50;45.10;;;;;;5012250;28;20425;-52
2022/04/13 11:56:32;;;;;;;19.52;9.48;;;20.80;46.80;;;;;;5009816;28;20121;-53
2022/04/13 11:58:58;;;;;;;;;;;21.20;48.70;;;;;;5010280;28;20444;-52
2022/04/13 12:01:25;;;;;;;17.52;9.93;;;21.20;45.20;;;;;;5009263;28;20004;-52
2022/04/13 12:03:51;;;;;;;17.80;10.15;;;21.10;46.70;;;;;;5008929;28;20108;-51
2022/04/13 12:06:21;;;;;;;17.70;9.40;;;20.60;45.70;;;;;;5011506;28;20037;-52
2022/04/13 12:08:59;;;;;;;14.57;8.88;;;20.70;46.60;;;;;;5028952;28;20029;-52
2022/04/13 12:11:45;;;;;;;16.00;9.90;;;20.30;44.10;;;;;;5029255;28;20384;-51
2022/04/13 12:14:24;;;;;;;16.00;8.38;;;20.00;44.70;;;;;;5029188;28;20128;-50
2022/04/13 12:16:50;;;;;;;15.13;7.65;;;20.20;44.20;;;;;;5028756;28;20036;-50
2022/04/13 12:19:15;;;;;;;16.50;9.05;;;20.10;42.40;;;;;;5029183;28;20488;-49
2022/04/13 12:21:41;;;;;;;18.48;10.43;;;20.00;43.60;;;;;;5029062;28;20435;-52
2022/04/13 12:24:09;;;;;;;21.92;9.90;;;20.10;46.20;;;;;;5029067;28;20033;-51
2022/04/13 12:26:39;;;;;;;19.25;9.43;;;20.10;45.00;;;;;;5029002;28;20022;-50
2022/04/13 12:29:24;;;;;;;19.70;11.40;;;20.20;45.90;;;;;;5029120;28;20026;-52
2022/04/13 12:31:55;;;;;;;24.60;10.20;;;20.10;45.50;;;;;;5028830;28;20021;-51
2022/04/13 12:34:23;;;;;;;15.80;8.50;;;20.10;47.10;;;;;;5028963;28;20041;-52
2022/04/13 12:36:55;;;;;;;17.10;8.85;;;20.30;46.00;;;;;;5028763;28;20052;-50
2022/04/13 12:39:34;;;;;;;16.23;8.93;;;20.70;45.20;;;;;;5029034;28;20079;-51